Time;durP1;ratioP1;P1;durP2;ratioP2;P2;SDS_P1;SDS_P2;PMS_P1;PMS_P2;Temp;Humidity;BMP_temperature;BMP_pressure;BME280_temperature;BME280_humidity;BME280_pressure;Samples;Min_cycle;Max_cycle;Signal;HPM_P1;HPM_P2
2022/01/11 00:02:10;;;;;;;67.45;26.27;;;;;;;-0.26;100.00;102866.84;5255704;28;19961;-71
2022/01/11 00:04:41;;;;;;;67.97;25.23;;;;;;;-0.32;100.00;102879.94;5252477;28;20051;-71
2022/01/11 00:07:15;;;;;;;66.47;25.98;;;;;;;-0.32;100.00;102872.09;5258597;28;20033;-72
2022/01/11 00:09:49;;;;;;;66.80;25.42;;;;;;;-0.26;100.00;102879.94;5252051;28;20498;-71
2022/01/11 00:12:21;;;;;;;61.85;24.25;;;;;;;-0.26;100.00;102898.31;5262564;28;20033;-72
2022/01/11 00:14:52;;;;;;;72.07;25.67;;;;;;;-0.27;100.00;102900.06;5253977;28;20035;-71
2022/01/11 00:17:23;;;;;;;71.75;25.70;;;;;;;-0.23;100.00;102903.53;5258145;28;20028;-71
2022/01/11 00:19:54;;;;;;;88.88;28.27;;;;;;;-0.33;100.00;102907.91;5246305;28;20105;-71
2022/01/11 00:22:31;;;;;;;87.57;27.70;;;;;;;-0.39;100.00;102905.28;5247857;28;20025;-72
2022/01/11 00:25:03;;;;;;;67.85;25.98;;;;;;;-0.28;100.00;102898.31;5253661;28;20052;-71
2022/01/11 00:27:34;;;;;;;71.18;27.20;;;;;;;-0.32;100.00;102891.31;5255045;28;20529;-71
2022/01/11 00:30:08;;;;;;;79.53;27.08;;;;;;;-0.34;100.00;102898.31;5254057;28;20626;-71
2022/01/11 00:32:48;;;;;;;78.57;27.88;;;;;;;-0.30;100.00;102900.06;5250623;28;20029;-72
2022/01/11 00:35:27;;;;;;;83.28;27.70;;;;;;;-0.32;100.00;102895.69;5250521;28;20036;-71
2022/01/11 00:37:59;;;;;;;69.53;25.42;;;;;;;-0.27;100.00;102900.06;5257371;28;20051;-71
2022/01/11 00:40:30;;;;;;;67.43;26.52;;;;;;;-0.28;100.00;102897.44;5251537;28;20551;-72
2022/01/11 00:43:04;;;;;;;72.20;27.60;;;;;;;-0.27;100.00;102900.06;5250038;28;20030;-72
2022/01/11 00:45:35;;;;;;;76.75;28.17;;;;;;;-0.31;100.00;102894.78;5254336;28;20050;-72
2022/01/11 00:48:06;;;;;;;74.25;26.30;;;;;;;-0.27;100.00;102883.44;5253035;28;20029;-72
2022/01/11 00:50:38;;;;;;;74.65;27.17;;;;;;;-0.23;100.00;102882.56;5248529;28;20483;-72
2022/01/11 00:53:10;;;;;;;75.78;27.35;;;;;;;-0.28;100.00;102884.31;5252896;28;20033;-72
2022/01/11 00:55:42;;;;;;;78.38;27.75;;;;;;;-0.26;100.00;102891.31;5245049;28;20028;-72
2022/01/11 00:58:15;;;;;;;79.75;28.58;;;;;;;-0.30;100.00;102883.44;5253981;28;20033;-72
2022/01/11 01:00:46;;;;;;;76.22;27.65;;;;;;;-0.25;100.00;102886.94;5249118;28;20032;-72
2022/01/11 01:03:18;;;;;;;75.68;28.08;;;;;;;-0.27;100.00;102879.09;5253203;28;20037;-72
2022/01/11 01:05:50;;;;;;;80.43;28.30;;;;;;;-0.30;100.00;102883.44;5244906;28;20438;-72
2022/01/11 01:08:21;;;;;;;79.95;29.23;;;;;;;-0.25;100.00;102886.94;5250517;28;20562;-72
2022/01/11 01:10:53;;;;;;;76.72;27.83;;;;;;;-0.23;100.00;102893.06;5252975;28;20033;-72
2022/01/11 01:13:26;;;;;;;82.32;28.33;;;;;;;-0.26;100.00;102898.31;5253800;28;20033;-71
2022/01/11 01:15:58;;;;;;;80.72;28.58;;;;;;;-0.28;100.00;102902.69;5254468;28;20448;-70
2022/01/11 01:18:32;;;;;;;78.32;29.25;;;;;;;-0.27;100.00;102896.53;5255333;28;20075;-70
2022/01/11 01:21:04;;;;;;;87.50;29.20;;;;;;;-0.22;100.00;102900.06;5252775;28;20024;-70
2022/01/11 01:23:35;;;;;;;78.90;28.98;;;;;;;-0.20;100.00;102901.81;5248194;28;20090;-70
2022/01/11 01:26:07;;;;;;;89.78;31.45;;;;;;;-0.26;100.00;102901.81;5251759;28;20041;-70
2022/01/11 01:28:38;;;;;;;87.18;31.13;;;;;;;-0.25;100.00;102897.41;5247214;28;20126;-70
2022/01/11 01:31:09;;;;;;;91.03;30.45;;;;;;;-0.27;100.00;102892.19;5248273;28;20041;-70
2022/01/11 01:33:41;;;;;;;87.45;31.35;;;;;;;-0.26;100.00;102893.06;5247297;28;20029;-70
2022/01/11 01:36:12;;;;;;;95.30;30.70;;;;;;;-0.29;100.00;102896.56;5253852;28;20454;-70
2022/01/11 01:38:43;;;;;;;86.13;30.40;;;;;;;-0.30;100.00;102904.44;5249520;28;20025;-70
2022/01/11 01:41:17;;;;;;;89.13;30.58;;;;;;;-0.31;100.00;102898.28;5243849;28;20414;-70
2022/01/11 01:43:53;;;;;;;89.32;30.17;;;;;;;-0.29;100.00;102898.28;5249944;28;20036;-70
2022/01/11 01:46:25;;;;;;;87.45;29.90;;;;;;;-0.30;100.00;102901.81;5242551;28;20033;-70
2022/01/11 01:48:59;;;;;;;96.68;32.53;;;;;;;-0.29;100.00;102893.06;5244512;28;20032;-71
2022/01/11 01:51:31;;;;;;;83.13;29.20;;;;;;;-0.32;100.00;102901.78;5248098;28;20036;-71
2022/01/11 01:54:02;;;;;;;94.38;31.83;;;;;;;-0.34;100.00;102898.31;5248145;28;20025;-71
2022/01/11 01:56:34;;;;;;;81.65;28.05;;;;;;;-0.26;100.00;102896.56;5249088;28;20090;-71
2022/01/11 01:59:05;;;;;;;80.47;29.08;;;;;;;-0.34;100.00;102900.06;5249617;28;20043;-71
2022/01/11 02:01:44;;;;;;;76.80;26.98;;;;;;;-0.37;100.00;102898.28;5248726;28;20025;-71
2022/01/11 02:04:18;;;;;;;82.63;28.77;;;;;;;-0.39;100.00;102910.50;5251865;28;20039;-71
2022/01/11 02:06:49;;;;;;;82.95;27.02;;;;;;;-0.42;100.00;102914.00;5250146;28;20060;-70
2022/01/11 02:09:20;;;;;;;84.65;28.58;;;;;;;-0.45;100.00;102910.50;5248609;28;20132;-70
2022/01/11 02:11:52;;;;;;;81.28;28.17;;;;;;;-0.44;100.00;102917.47;5250418;28;20028;-70
2022/01/11 02:14:23;;;;;;;81.13;28.02;;;;;;;-0.43;100.00;102916.63;5239638;28;20025;-70
2022/01/11 02:16:56;;;;;;;77.18;27.65;;;;;;;-0.46;100.00;102913.97;5251168;28;20057;-71
2022/01/11 02:19:28;;;;;;;73.78;27.23;;;;;;;-0.40;100.00;102919.28;5252515;28;20013;-71
2022/01/11 02:21:59;;;;;;;78.28;27.52;;;;;;;-0.39;100.00;102923.63;5250088;28;20078;-70
2022/01/11 02:24:33;;;;;;;81.43;28.02;;;;;;;-0.41;100.00;102923.63;5250998;28;20033;-70
2022/01/11 02:27:04;;;;;;;73.10;26.63;;;;;;;-0.34;100.00;102940.25;5253011;28;20021;-71
2022/01/11 02:29:37;;;;;;;81.28;27.70;;;;;;;-0.42;100.00;102937.63;5249625;28;20513;-71
2022/01/11 02:32:08;;;;;;;79.00;28.33;;;;;;;-0.45;100.00;102936.72;5253588;28;20029;-71
2022/01/11 02:34:40;;;;;;;77.32;27.00;;;;;;;-0.41;100.00;102930.63;5250646;28;20036;-69
2022/01/11 02:37:11;;;;;;;75.15;26.55;;;;;;;-0.42;100.00;102926.25;5253572;28;20067;-69
2022/01/11 02:39:46;;;;;;;82.72;28.75;;;;;;;-0.40;100.00;102932.38;5254318;28;20136;-69
2022/01/11 02:42:17;;;;;;;76.13;27.88;;;;;;;-0.46;100.00;102927.09;5250615;28;20033;-68
2022/01/11 02:44:48;;;;;;;72.63;26.50;;;;;;;-0.43;100.00;102946.34;5243207;28;20586;-68
2022/01/11 02:47:20;;;;;;;71.68;26.58;;;;;;;-0.43;100.00;102950.72;5246910;28;20075;-68
2022/01/11 02:49:51;;;;;;;76.25;27.88;;;;;;;-0.43;100.00;102950.72;5249214;28;20035;-68
2022/01/11 02:52:22;;;;;;;80.50;27.27;;;;;;;-0.39;100.00;102952.47;5247893;28;20040;-69
2022/01/11 02:54:54;;;;;;;74.63;27.65;;;;;;;-0.41;100.00;102951.59;5249054;28;20025;-69
2022/01/11 02:57:25;;;;;;;77.40;27.45;;;;;;;-0.35;100.00;102959.47;5254637;28;20043;-69
2022/01/11 02:59:56;;;;;;;81.13;28.85;;;;;;;-0.34;100.00;102966.50;5245660;28;20051;-68
2022/01/11 03:02:28;;;;;;;73.30;27.63;;;;;;;-0.34;100.00;102966.50;5249223;28;20472;-69
2022/01/11 03:04:59;;;;;;;79.68;27.05;;;;;;;-0.27;100.00;102962.13;5251687;28;20040;-69
2022/01/11 03:07:30;;;;;;;80.13;28.45;;;;;;;-0.29;100.00;102964.78;5244155;28;20037;-69
2022/01/11 03:10:14;;;;;;;79.50;27.90;;;;;;;-0.30;100.00;102962.13;5244722;28;20088;-69
2022/01/11 03:12:46;;;;;;;74.75;25.88;;;;;;;-0.31;100.00;102960.38;5249427;28;20044;-68
2022/01/11 03:15:17;;;;;;;76.82;27.70;;;;;;;-0.31;100.00;102963.84;5246591;28;20352;-68
2022/01/11 03:17:49;;;;;;;78.22;28.63;;;;;;;-0.32;100.00;102962.13;5246941;28;20044;-68
2022/01/11 03:20:20;;;;;;;78.97;27.00;;;;;;;-0.37;100.00;102961.22;5249990;28;20037;-68
2022/01/11 03:22:52;;;;;;;71.65;27.48;;;;;;;-0.36;100.00;102960.38;5247116;28;20033;-68
2022/01/11 03:25:25;;;;;;;71.72;27.88;;;;;;;-0.44;100.00;102960.34;5251754;28;20036;-68
2022/01/11 03:27:56;;;;;;;76.20;27.08;;;;;;;-0.40;100.00;102962.09;5251505;28;20035;-68
2022/01/11 03:30:27;;;;;;;72.80;28.02;;;;;;;-0.47;100.00;102970.81;5249027;28;20406;-70
2022/01/11 03:32:59;;;;;;;71.55;27.70;;;;;;;-0.45;100.00;102958.56;5250902;28;20037;-70
2022/01/11 03:35:31;;;;;;;70.25;26.60;;;;;;;-0.51;100.00;102962.94;5253087;28;20041;-70
2022/01/11 03:38:04;;;;;;;72.13;25.95;;;;;;;-0.48;100.00;102947.19;5247909;28;20108;-69
2022/01/11 03:40:35;;;;;;;73.82;27.02;;;;;;;-0.57;100.00;102953.31;5248240;28;20017;-69
2022/01/11 03:43:07;;;;;;;71.45;27.02;;;;;;;-0.53;100.00;102948.94;5251597;28;20091;-69
2022/01/11 03:45:38;;;;;;;63.85;25.70;;;;;;;-0.56;100.00;102957.66;5248585;28;20045;-69
2022/01/11 03:48:10;;;;;;;68.28;26.55;;;;;;;-0.55;100.00;102946.31;5250657;28;20029;-69
2022/01/11 03:50:42;;;;;;;69.70;26.27;;;;;;;-0.59;100.00;102949.81;5252272;28;20075;-69
2022/01/11 03:53:16;;;;;;;66.38;26.15;;;;;;;-0.63;100.00;102942.78;5249877;28;20487;-69
2022/01/11 03:58:25;;;;;;;60.70;25.10;;;;;;;-0.67;100.00;102952.38;5245599;28;20034;-69
2022/01/11 04:00:57;;;;;;;65.63;25.55;;;;;;;-0.70;100.00;102951.50;5243115;28;20033;-69
2022/01/11 04:03:29;;;;;;;71.65;27.25;;;;;;;-0.74;100.00;102958.47;5244358;28;20053;-70
2022/01/11 04:06:00;;;;;;;65.03;26.52;;;;;;;-0.70;100.00;102960.22;5242467;28;20478;-69
2022/01/11 04:08:31;;;;;;;71.20;26.33;;;;;;;-0.71;100.00;102961.13;5251984;28;20637;-69
2022/01/11 04:11:04;;;;;;;68.88;26.63;;;;;;;-0.74;100.00;102961.09;5248091;28;20190;-69
2022/01/11 04:13:35;;;;;;;67.15;26.58;;;;;;;-0.76;100.00;102952.34;5244612;28;20060;-69
2022/01/11 04:16:07;;;;;;;69.30;26.33;;;;;;;-0.76;100.00;102969.81;5249706;28;20033;-70
2022/01/11 04:18:38;;;;;;;67.88;25.50;;;;;;;-0.78;100.00;102974.19;5249945;28;20478;-69
2022/01/11 04:21:09;;;;;;;64.95;26.30;;;;;;;-0.78;100.00;102964.56;5250279;28;20047;-69
2022/01/11 04:23:41;;;;;;;62.30;25.05;;;;;;;-0.77;100.00;102968.91;5252350;28;20574;-69
2022/01/11 04:26:12;;;;;;;66.10;25.95;;;;;;;-0.81;100.00;102961.91;5248564;28;20123;-69
2022/01/11 04:28:43;;;;;;;62.55;25.77;;;;;;;-0.81;100.00;102959.28;5247783;28;20493;-69
2022/01/11 04:31:14;;;;;;;65.93;26.55;;;;;;;-0.87;100.00;102973.25;5251681;28;20037;-69
2022/01/11 04:33:46;;;;;;;62.60;25.33;;;;;;;-0.88;100.00;102973.22;5250529;28;20029;-69
2022/01/11 04:36:17;;;;;;;59.80;24.95;;;;;;;-0.90;100.00;102982.81;5250784;28;20040;-69
2022/01/11 04:38:49;;;;;;;60.40;24.85;;;;;;;-0.92;100.00;102981.94;5247794;28;20112;-69
2022/01/11 04:41:21;;;;;;;55.08;24.77;;;;;;;-0.95;100.00;102988.06;5247687;28;20036;-69
2022/01/11 04:43:52;;;;;;;64.60;26.40;;;;;;;-1.03;100.00;102988.00;5251107;28;20037;-70
2022/01/11 04:46:23;;;;;;;64.15;26.25;;;;;;;-1.04;100.00;102977.50;5251989;28;20033;-69
2022/01/11 04:48:55;;;;;;;61.28;25.83;;;;;;;-0.99;100.00;102989.78;5255306;28;20028;-69
2022/01/11 04:51:27;;;;;;;63.88;25.77;;;;;;;-1.05;100.00;102981.00;5244065;28;20564;-69
2022/01/11 04:53:59;;;;;;;66.63;26.45;;;;;;;-1.11;100.00;102966.13;5253718;28;20394;-69
2022/01/11 04:56:31;;;;;;;60.92;25.70;;;;;;;-1.12;100.00;102982.69;5253798;28;20029;-69
2022/01/11 04:59:02;;;;;;;64.32;27.13;;;;;;;-1.17;100.00;102981.78;5249465;28;21012;-69
2022/01/11 05:01:34;;;;;;;62.28;25.52;;;;;;;-1.19;100.00;102976.56;5249818;28;20065;-69
2022/01/11 05:04:05;;;;;;;62.80;26.88;;;;;;;-1.24;100.00;102973.00;5251603;28;20072;-69
2022/01/11 05:06:36;;;;;;;65.00;26.10;;;;;;;-1.21;100.00;102975.66;5253543;28;20036;-69
2022/01/11 05:09:07;;;;;;;69.70;27.83;;;;;;;-1.26;100.00;102971.25;5248817;28;20143;-69
2022/01/11 05:11:39;;;;;;;66.85;26.80;;;;;;;-1.30;100.00;102972.13;5248947;28;20083;-69
2022/01/11 05:14:10;;;;;;;65.18;26.70;;;;;;;-1.38;100.00;102970.31;5250389;28;20036;-69
2022/01/11 05:16:41;;;;;;;68.22;27.85;;;;;;;-1.40;100.00;102974.66;5248579;28;20089;-69
2022/01/11 05:19:13;;;;;;;72.25;29.67;;;;;;;-1.38;100.00;102977.28;5247365;28;20045;-70
2022/01/11 05:21:44;;;;;;;74.05;29.73;;;;;;;-1.45;100.00;102976.34;5246834;28;20037;-69
2022/01/11 05:24:15;;;;;;;71.43;28.38;;;;;;;-1.47;100.00;102966.75;5254428;28;20067;-69
2022/01/11 05:26:47;;;;;;;76.90;29.45;;;;;;;-1.48;100.00;102968.47;5255959;28;20483;-70
2022/01/11 05:29:18;;;;;;;80.72;29.73;;;;;;;-1.47;100.00;102970.22;5253234;28;20037;-69
2022/01/11 05:31:49;;;;;;;72.95;28.10;;;;;;;-1.50;100.00;102961.47;5264500;28;20041;-70
2022/01/11 05:34:20;;;;;;;76.45;28.75;;;;;;;-1.51;100.00;102959.75;5249704;28;20033;-69
2022/01/11 05:36:52;;;;;;;81.47;30.90;;;;;;;-1.58;100.00;102969.25;5244020;28;20045;-69
2022/01/11 05:39:24;;;;;;;88.90;31.25;;;;;;;-1.58;100.00;102967.50;5249531;28;20032;-69
2022/01/11 05:41:56;;;;;;;82.65;30.65;;;;;;;-1.59;100.00;102964.91;5246874;28;20439;-70
2022/01/11 05:44:27;;;;;;;81.50;29.67;;;;;;;-1.62;100.00;102970.09;5250284;28;20207;-69
2022/01/11 05:46:58;;;;;;;82.22;30.45;;;;;;;-1.61;100.00;102972.75;5247230;28;20033;-69
2022/01/11 05:49:30;;;;;;;76.20;29.65;;;;;;;-1.63;100.00;102977.09;5243998;28;20665;-70
2022/01/11 05:52:01;;;;;;;76.63;30.52;;;;;;;-1.65;100.00;102977.91;5248148;28;20402;-69
2022/01/11 05:54:33;;;;;;;77.00;29.40;;;;;;;-1.67;100.00;102971.78;5251334;28;20344;-70
2022/01/11 05:57:04;;;;;;;83.72;29.85;;;;;;;-1.65;100.00;102980.53;5252616;28;20098;-70
2022/01/11 05:59:35;;;;;;;80.32;29.45;;;;;;;-1.65;100.00;102973.59;5240244;28;20111;-70
2022/01/11 06:02:07;;;;;;;77.38;30.45;;;;;;;-1.65;100.00;102980.53;5242124;28;20068;-70
2022/01/11 06:04:38;;;;;;;76.85;30.20;;;;;;;-1.66;100.00;102994.50;5240973;28;20377;-70
2022/01/11 06:07:09;;;;;;;80.57;29.63;;;;;;;-1.62;100.00;103004.13;5255793;28;20060;-70
2022/01/11 06:09:41;;;;;;;79.30;28.27;;;;;;;-1.62;100.00;103006.75;5250814;28;20074;-69
2022/01/11 06:12:12;;;;;;;77.75;28.10;;;;;;;-1.65;100.00;103010.22;5242725;28;20045;-69
2022/01/11 06:14:43;;;;;;;78.28;29.73;;;;;;;-1.66;100.00;103011.06;5238350;28;20037;-70
2022/01/11 06:17:14;;;;;;;69.22;27.85;;;;;;;-1.67;100.00;103018.91;5250668;28;20037;-69
2022/01/11 06:19:46;;;;;;;69.80;27.92;;;;;;;-1.72;100.00;103018.00;5245175;28;20021;-70
2022/01/11 06:22:17;;;;;;;69.70;27.05;;;;;;;-1.72;100.00;103018.88;5249274;28;20046;-69
2022/01/11 06:24:48;;;;;;;74.65;27.88;;;;;;;-1.73;100.00;103022.34;5249905;28;20105;-70
2022/01/11 06:27:20;;;;;;;67.30;27.52;;;;;;;-1.72;100.00;103033.72;5245228;28;20048;-69
2022/01/11 06:29:51;;;;;;;73.75;26.88;;;;;;;-1.75;100.00;103037.16;5247595;28;20025;-70
2022/01/11 06:32:22;;;;;;;65.55;25.92;;;;;;;-1.81;100.00;103037.09;5246168;28;20031;-70
2022/01/11 06:34:55;;;;;;;70.47;28.10;;;;;;;-1.83;100.00;103038.81;5253107;28;20048;-69
2022/01/11 06:37:26;;;;;;;66.75;26.60;;;;;;;-1.82;100.00;103028.38;5245012;28;20467;-70
2022/01/11 06:40:00;;;;;;;64.45;25.67;;;;;;;-1.84;100.00;103035.34;5252198;28;20036;-70
2022/01/11 06:42:32;;;;;;;68.55;26.92;;;;;;;-1.82;100.00;103033.59;5255375;28;20033;-70
2022/01/11 06:45:05;;;;;;;62.45;24.85;;;;;;;-1.83;100.00;103044.06;5251536;28;20068;-70
2022/01/11 06:47:36;;;;;;;68.82;26.10;;;;;;;-1.88;100.00;103037.88;5248628;28;20379;-70
2022/01/11 06:50:09;;;;;;;66.70;26.65;;;;;;;-1.88;100.00;103040.50;5251862;28;20343;-70
2022/01/11 06:52:40;;;;;;;61.45;25.50;;;;;;;-1.90;100.00;103045.69;5243243;28;20441;-70
2022/01/11 06:55:12;;;;;;;66.97;26.60;;;;;;;-1.85;100.00;103056.25;5243914;28;20033;-70
2022/01/11 06:57:43;;;;;;;68.97;27.20;;;;;;;-1.90;100.00;103048.31;5244296;28;20487;-70
2022/01/11 07:00:15;;;;;;;69.75;26.00;;;;;;;-1.93;100.00;103036.97;5250215;28;20385;-71
2022/01/11 07:02:49;;;;;;;68.78;26.92;;;;;;;-1.94;100.00;103043.91;5248708;28;20475;-70
2022/01/11 07:05:22;;;;;;;67.65;27.88;;;;;;;-1.96;100.00;103040.41;5251350;28;20399;-70
2022/01/11 07:07:53;;;;;;;71.88;31.33;;;;;;;-1.69;100.00;103046.81;5248328;28;20068;-69
2022/01/11 07:10:25;;;;;;;72.60;28.92;;;;;;;-1.59;100.00;103048.66;5247827;28;20167;-70
2022/01/11 07:12:57;;;;;;;65.90;26.52;;;;;;;-1.53;100.00;103055.66;5254622;28;20533;-70
2022/01/11 07:15:29;;;;;;;68.85;26.98;;;;;;;-1.55;100.00;103057.41;5251387;28;20029;-70
2022/01/11 07:18:06;;;;;;;63.15;26.70;;;;;;;-1.54;100.00;103060.03;5249043;28;20064;-70
2022/01/11 07:20:42;;;;;;;66.68;27.88;;;;;;;-1.58;100.00;103060.88;5249570;28;20092;-71
2022/01/11 07:23:13;;;;;;;63.53;27.33;;;;;;;-1.63;100.00;103067.78;5246089;28;20148;-71
2022/01/11 07:25:45;;;;;;;70.95;29.02;;;;;;;-1.68;100.00;103073.00;5244158;28;20537;-71
2022/01/11 07:28:16;;;;;;;68.30;27.63;;;;;;;-1.65;100.00;103072.13;5245722;28;20040;-70
2022/01/11 07:30:48;;;;;;;69.15;28.00;;;;;;;-1.66;100.00;103079.13;5254345;28;20028;-70
2022/01/11 07:33:19;;;;;;;73.03;27.75;;;;;;;-1.69;100.00;103075.59;5253508;28;20528;-70
2022/01/11 07:35:50;;;;;;;71.20;27.42;;;;;;;-1.71;100.00;103087.78;5247706;28;20029;-70
2022/01/11 07:38:21;;;;;;;69.22;28.17;;;;;;;-1.72;100.00;103081.69;5245477;28;20027;-70
2022/01/11 07:40:53;;;;;;;70.15;27.58;;;;;;;-1.71;100.00;103088.66;5241749;28;20364;-70
2022/01/11 07:43:24;;;;;;;61.15;26.30;;;;;;;-1.74;100.00;103090.38;5246329;28;20033;-70
2022/01/11 07:45:55;;;;;;;61.47;26.00;;;;;;;-1.73;100.00;103094.75;5249452;28;20573;-70
2022/01/11 07:48:26;;;;;;;61.83;27.52;;;;;;;-1.72;100.00;103101.75;5251264;28;20538;-71
2022/01/11 07:50:58;;;;;;;65.05;26.13;;;;;;;-1.72;100.00;103104.38;5251178;28;20064;-70
2022/01/11 07:53:29;;;;;;;59.88;26.45;;;;;;;-1.72;100.00;103100.00;5253137;28;20037;-70
2022/01/11 07:56:00;;;;;;;60.35;26.20;;;;;;;-1.72;100.00;103101.75;5254653;28;20674;-70
2022/01/11 07:58:31;;;;;;;64.80;27.27;;;;;;;-1.73;100.00;103099.97;5253501;28;20036;-71
2022/01/11 08:01:03;;;;;;;61.17;24.90;;;;;;;-1.73;100.00;103102.59;5254170;28;20047;-71
2022/01/11 08:03:34;;;;;;;61.65;28.35;;;;;;;-1.70;100.00;103098.28;5251381;28;20151;-71
2022/01/11 08:06:05;;;;;;;61.22;26.27;;;;;;;-1.67;100.00;103092.19;5250278;28;20036;-70
2022/01/11 08:08:37;;;;;;;60.13;26.30;;;;;;;-1.71;100.00;103099.13;5255181;28;20045;-70
2022/01/11 08:11:08;;;;;;;54.08;24.80;;;;;;;-1.67;100.00;103090.47;5253786;28;20111;-70
2022/01/11 08:13:40;;;;;;;54.55;24.75;;;;;;;-1.65;100.00;103106.16;5250835;28;20040;-70
2022/01/11 08:16:11;;;;;;;59.28;23.90;;;;;;;-1.66;100.00;103093.97;5254773;28;20032;-70
2022/01/11 08:18:42;;;;;;;55.13;24.65;;;;;;;-1.61;100.00;103097.47;5255419;28;20024;-70
2022/01/11 08:21:13;;;;;;;59.13;24.70;;;;;;;-1.59;100.00;103104.50;5252105;28;20029;-70
2022/01/11 08:23:45;;;;;;;55.80;24.63;;;;;;;-1.54;100.00;103107.16;5249229;28;20033;-70
2022/01/11 08:26:16;;;;;;;54.80;23.40;;;;;;;-1.49;100.00;103105.47;5254436;28;20115;-70
2022/01/11 08:28:47;;;;;;;60.38;26.98;;;;;;;-1.48;100.00;103101.97;5250339;28;20029;-70
2022/01/11 08:31:20;;;;;;;54.30;24.08;;;;;;;-1.43;100.00;103108.16;5252425;28;20587;-70
2022/01/11 08:33:51;;;;;;;58.92;24.65;;;;;;;-1.39;100.00;103107.31;5256797;28;20044;-70
2022/01/11 08:36:22;;;;;;;60.85;24.05;;;;;;;-1.35;100.00;103108.22;5253076;28;20350;-70
2022/01/11 08:38:54;;;;;;;55.95;24.08;;;;;;;-1.30;100.00;103106.53;5253819;28;20356;-70
2022/01/11 08:41:25;;;;;;;57.63;24.88;;;;;;;-1.26;100.00;103104.81;5254919;28;20033;-70
2022/01/11 08:43:56;;;;;;;60.45;24.25;;;;;;;-1.26;100.00;103108.31;5255053;28;20037;-70
2022/01/11 08:46:27;;;;;;;56.08;23.73;;;;;;;-1.19;100.00;103107.53;5253444;28;20064;-70
2022/01/11 08:49:00;;;;;;;55.15;24.10;;;;;;;-1.16;100.00;103105.78;5255143;28;20033;-71
2022/01/11 08:51:32;;;;;;;56.65;24.45;;;;;;;-1.12;100.00;103105.81;5251790;28;20036;-70
2022/01/11 08:54:03;;;;;;;53.30;23.25;;;;;;;-1.11;100.00;103114.53;5254660;28;20281;-70
2022/01/11 08:56:35;;;;;;;54.70;23.15;;;;;;;-1.09;100.00;103112.84;5254949;28;20033;-71
2022/01/11 08:59:06;;;;;;;54.25;23.63;;;;;;;-1.04;100.00;103116.34;5251986;28;20045;-70
2022/01/11 09:01:38;;;;;;;54.55;23.45;;;;;;;-1.01;100.00;103113.78;5255451;28;20048;-71
2022/01/11 09:04:09;;;;;;;54.13;23.08;;;;;;;-1.01;100.00;103111.16;5286111;28;20119;-70
2022/01/11 09:06:40;;;;;;;54.40;22.52;;;;;;;-1.00;100.00;103126.00;5254018;28;20036;-70
2022/01/11 09:09:12;;;;;;;52.22;22.48;;;;;;;-0.94;100.00;103131.31;5254300;28;20045;-70
2022/01/11 09:11:45;;;;;;;51.65;22.77;;;;;;;-0.94;100.00;103133.94;5254600;28;20033;-70
2022/01/11 09:14:16;;;;;;;51.78;22.35;;;;;;;-0.91;100.00;103130.44;5252188;28;20086;-70
2022/01/11 09:16:47;;;;;;;51.42;23.10;;;;;;;-0.87;100.00;103129.59;5253095;28;20028;-70
2022/01/11 09:19:19;;;;;;;50.72;21.98;;;;;;;-0.90;100.00;103127.84;5249853;28;20029;-70
2022/01/11 09:21:50;;;;;;;48.83;21.90;;;;;;;-0.84;100.00;103127.03;5253193;28;20513;-70
2022/01/11 09:24:23;;;;;;;53.70;22.55;;;;;;;-0.81;100.00;103122.66;5247665;28;21354;-70
2022/01/11 09:27:02;;;;;;;50.28;22.58;;;;;;;-0.72;100.00;103131.47;5254223;28;20025;-70
2022/01/11 09:29:37;;;;;;;52.00;22.17;;;;;;;-0.60;100.00;103134.19;5252128;28;20029;-70
2022/01/11 09:32:10;;;;;;;47.72;21.88;;;;;;;-0.58;100.00;103131.56;5253114;28;20033;-70
2022/01/11 09:34:41;;;;;;;46.83;20.55;;;;;;;-0.50;100.00;103133.38;5252634;28;20036;-70
2022/01/11 09:37:13;;;;;;;53.20;21.73;;;;;;;-0.43;100.00;103136.91;5255501;28;20406;-70
2022/01/11 09:39:44;;;;;;;46.30;21.15;;;;;;;-0.39;100.00;103136.06;5252667;28;20025;-71
2022/01/11 09:42:16;;;;;;;42.15;20.50;;;;;;;-0.35;100.00;103139.59;5256219;28;20029;-70
2022/01/11 09:44:48;;;;;;;38.47;19.25;;;;;;;-0.30;100.00;103146.63;5252639;28;20036;-70
2022/01/11 09:47:19;;;;;;;42.42;20.15;;;;;;;-0.24;100.00;103148.41;5254844;28;20056;-71
2022/01/11 09:49:50;;;;;;;43.83;21.15;;;;;;;-0.18;100.00;103144.94;5249098;28;20052;-70
2022/01/11 09:52:26;;;;;;;36.72;19.67;;;;;;;-0.11;100.00;103151.97;5254283;28;20410;-70
2022/01/11 09:54:57;;;;;;;40.45;19.35;;;;;;;-0.02;100.00;103152.00;5253141;28;20036;-70
2022/01/11 09:57:29;;;;;;;36.33;18.70;;;;;;;0.09;100.00;103152.06;5251307;28;20056;-70
2022/01/11 10:00:00;;;;;;;41.78;19.35;;;;;;;0.16;100.00;103148.59;5253796;28;20047;-71
2022/01/11 10:02:31;;;;;;;40.70;18.70;;;;;;;0.29;100.00;103146.88;5253484;28;20039;-70
2022/01/11 10:05:09;;;;;;;39.35;19.63;;;;;;;0.32;100.00;103157.41;5254514;28;20505;-70
2022/01/11 10:07:42;;;;;;;38.58;18.85;;;;;;;0.37;100.00;103163.56;5252745;28;20040;-69
2022/01/11 10:10:17;;;;;;;36.03;17.95;;;;;;;0.43;100.00;103147.81;5251443;28;20040;-70
2022/01/11 10:12:51;;;;;;;33.70;17.35;;;;;;;0.49;100.00;103146.97;5250702;28;21633;-69
2022/01/11 10:15:32;;;;;;;34.72;17.70;;;;;;;0.57;100.00;103153.97;5252336;28;20037;-70
2022/01/11 10:18:03;;;;;;;31.13;16.50;;;;;;;0.62;100.00;103155.75;5252320;28;20497;-70
2022/01/11 10:20:35;;;;;;;31.73;16.63;;;;;;;0.71;100.00;103156.66;5253154;28;20120;-69
2022/01/11 10:23:08;;;;;;;36.88;17.33;;;;;;;0.76;100.00;103154.88;5251121;28;20055;-69
2022/01/11 10:25:45;;;;;;;34.00;17.25;;;;;;;0.87;100.00;103151.41;5251836;28;20062;-70
2022/01/11 10:28:17;;;;;;;35.13;16.48;;;;;;;0.94;100.00;103155.78;5253540;28;20024;-70
2022/01/11 10:30:48;;;;;;;30.90;16.33;;;;;;;1.02;100.00;103153.16;5251832;28;20091;-70
2022/01/11 10:33:19;;;;;;;28.30;15.20;;;;;;;1.03;100.00;103152.31;5251353;28;20029;-70
2022/01/11 10:35:51;;;;;;;32.45;16.85;;;;;;;1.12;100.00;103150.53;5250436;28;20035;-70
2022/01/11 10:38:30;;;;;;;35.15;16.55;;;;;;;1.17;100.00;103151.44;5250082;28;20056;-70
2022/01/11 10:41:02;;;;;;;30.58;15.77;;;;;;;1.26;100.00;103149.66;5251663;28;20024;-70
2022/01/11 10:43:43;;;;;;;28.83;14.90;;;;;;;1.33;100.00;103152.28;5253109;28;20090;-70
2022/01/11 10:46:17;;;;;;;32.65;15.68;;;;;;;1.33;100.00;103152.28;5249579;28;20084;-70
2022/01/11 10:48:48;;;;;;;30.38;16.00;;;;;;;1.42;100.00;103158.41;5247607;28;20027;-70
2022/01/11 10:51:19;;;;;;;28.88;15.10;;;;;;;1.49;100.00;103158.41;5251671;28;20051;-70
2022/01/11 10:53:50;;;;;;;26.98;14.98;;;;;;;1.56;100.00;103156.66;5251655;28;20473;-70
2022/01/11 10:56:37;;;;;;;26.27;14.30;;;;;;;1.62;100.00;103164.53;5251542;28;20548;-70
2022/01/11 10:59:10;;;;;;;30.65;14.40;;;;;;;1.65;100.00;103164.53;5250403;28;20040;-70
2022/01/11 11:01:43;;;;;;;27.13;14.20;;;;;;;1.71;100.00;103159.25;5250278;28;20028;-70
2022/01/11 11:04:30;;;;;;;25.65;14.20;;;;;;;1.76;100.00;103160.13;5252478;28;20407;-70
2022/01/11 11:07:12;;;;;;;29.05;14.85;;;;;;;1.78;100.00;103162.75;5247628;28;20033;-70
2022/01/11 11:09:46;;;;;;;27.90;14.27;;;;;;;1.81;100.00;103156.63;5251049;28;20462;-70
2022/01/11 11:12:20;;;;;;;28.45;13.73;;;;;;;1.86;100.00;103152.19;5253315;28;20468;-70
2022/01/11 11:14:53;;;;;;;27.83;14.20;;;;;;;1.87;100.00;103154.84;5248155;28;20170;-70
2022/01/11 11:17:30;;;;;;;24.27;13.73;;;;;;;1.93;100.00;103159.19;5253831;28;20047;-70
2022/01/11 11:20:08;;;;;;;25.80;14.05;;;;;;;1.97;100.00;103158.31;5248803;28;20060;-70
2022/01/11 11:22:41;;;;;;;27.13;14.10;;;;;;;1.99;100.00;103153.91;5251504;28;20020;-70
2022/01/11 11:25:12;;;;;;;23.88;13.18;;;;;;;2.02;100.00;103168.84;5253317;28;20035;-70
2022/01/11 11:27:43;;;;;;;26.60;14.07;;;;;;;2.05;100.00;103172.34;5255444;28;20024;-70